This is the latest recevied weather packets stored in our database for station/object KD4EED. If no packets are shown the sender has not sent any weather packets the latest 10 day(s).
| Time | Temp. | Humidity | Pressure | Rain* | Wind** | Luminosity | Snow |
|---|---|---|---|---|---|---|---|
| 1777859450 | 16.67° C | 69% | 1011 hPa | - | - | 15 W/m² | - |
| 1777859146 | 16.67° C | 69% | 1010.9 hPa | - | - | 15 W/m² | - |
| 1777858844 | 16.67° C | 68% | 1010.9 hPa | - | - | 19 W/m² | - |
| 1777858541 | 16.67° C | 68% | 1010.6 hPa | - | - | 31 W/m² | - |
| 1777858238 | 17.22° C | 66% | 1010.7 hPa | - | - | 25 W/m² | - |
| 1777857935 | 17.22° C | 64% | 1010.9 hPa | - | - | 23 W/m² | - |
| 1777857633 | 17.22° C | 64% | 1011 hPa | - | - | 23 W/m² | - |
| 1777857330 | 17.78° C | 63% | 1010.6 hPa | - | - | 21 W/m² | - |
| 1777857026 | 17.78° C | 62% | 1010.6 hPa | - | - | 45 W/m² | - |
| 1777856722 | 17.78° C | 62% | 1010.7 hPa | - | - | 77 W/m² | - |
| 1777856418 | 18.33° C | 58% | 1010.7 hPa | - | - | 72 W/m² | - |
| 1777856115 | 18.33° C | 59% | 1010.6 hPa | - | - | 69 W/m² | - |
| 1777855812 | 18.33° C | 59% | 1010.7 hPa | - | - | 98 W/m² | - |
| 1777855510 | 18.89° C | 58% | 1010.7 hPa | - | - | 121 W/m² | - |
| 1777855207 | 18.89° C | 58% | 1010.5 hPa | - | - | 129 W/m² | - |
| 1777854902 | 18.89° C | 59% | 1010.4 hPa | - | - | 144 W/m² | - |
| 1777854600 | 18.89° C | 57% | 1010.6 hPa | - | - | 147 W/m² | - |
| 1777854297 | 18.89° C | 58% | 1010.7 hPa | - | - | 150 W/m² | - |
| 1777853994 | 19.44° C | 56% | 1010.6 hPa | - | - | 195 W/m² | - |
| 1777853691 | 18.89° C | 59% | 1010.6 hPa | - | - | 332 W/m² | - |
| 1777853388 | 18.89° C | 57% | 1010.4 hPa | - | - | 199 W/m² | - |
| 1777853085 | 18.89° C | 60% | 1010.4 hPa | - | - | 187 W/m² | - |
| 1777852782 | 18.89° C | 60% | 1010.4 hPa | - | - | 231 W/m² | - |
| 1777852480 | 18.89° C | 61% | 1010.3 hPa | - | - | 264 W/m² | - |
| 1777852177 | 18.33° C | 62% | 1010.6 hPa | - | - | 216 W/m² | - |
* Rain since midnight (hover to see other rain measurements)
** Current wind speed in m/s (hover to see current wind gust speed)